In Rescue
 
Open Full Screen Window  High Contrast Mode
Wind Gusting 00 knots
04
March 04, 2021 3:58 AM CST
Weather Information
Wind Direction
  120 °
Wind Speed
  04 kt (5 mph)
Wind Gust
  00 kt (0 mph)
Altimeter
30.14 in
Visibility
---
Temperature
00° C
32° F
Dewpoint
-01° C
30° F
Humidity
93%
1hr Rain Fall
00.00 in.
24hr Rain Fall
00.00 in.
Sky Condition
Missing

METAR KDVP 040958Z AUTO 12004KT 00/M01 A3014 RMK AO2 T10041009 PWINO

FAA Disclaimer: The data displayed is for advisory purposes only and is not to be used for flight planning or operations.
Missing Cloud Data